Time;durP1;ratioP1;P1;durP2;ratioP2;P2;SDS_P1;SDS_P2;PMS_P1;PMS_P2;Temp;Humidity;BMP_temperature;BMP_pressure;BME280_temperature;BME280_humidity;BME280_pressure;Samples;Min_cycle;Max_cycle;Signal;HPM_P1;HPM_P2
2022/01/18 00:00:47;;;;;;;34.72;6.88;;;8.00;99.90;;;;;;5037547;28;20303;-96
2022/01/18 00:03:14;;;;;;;28.92;6.80;;;8.00;99.90;;;;;;5033661;28;20435;-94
2022/01/18 00:05:45;;;;;;;36.63;8.23;;;8.00;99.90;;;;;;5051713;28;20037;-96
2022/01/18 00:08:14;;;;;;;37.78;7.70;;;8.00;99.90;;;;;;5052135;28;20489;-96
2022/01/18 00:10:39;;;;;;;42.42;8.25;;;8.00;99.90;;;;;;5034982;28;20052;-96
2022/01/18 00:13:36;;;;;;;37.88;7.22;;;8.00;99.90;;;;;;5053451;28;20081;-96
2022/01/18 00:18:36;;;;;;;41.83;7.57;;;7.90;99.90;;;;;;5056313;28;20056;-96
2022/01/18 00:23:36;;;;;;;37.13;9.35;;;7.90;99.90;;;;;;5058249;28;20049;-95
2022/01/18 00:26:06;;;;;;;37.28;8.13;;;7.90;99.90;;;;;;5040861;28;20036;-96
2022/01/18 00:28:32;;;;;;;41.97;8.77;;;7.90;99.90;;;;;;5042079;28;20044;-96
2022/01/18 00:31:28;;;;;;;36.22;9.00;;;7.80;99.90;;;;;;5040883;28;20037;-96
2022/01/18 00:36:27;;;;;;;39.05;9.00;;;7.70;99.90;;;;;;5058032;28;20048;-95
2022/01/18 00:38:52;;;;;;;36.38;8.98;;;7.70;99.90;;;;;;5059043;28;20045;-94
2022/01/18 00:41:21;;;;;;;36.22;8.07;;;7.70;99.90;;;;;;5039701;28;20111;-96
2022/01/18 00:44:03;;;;;;;38.00;8.88;;;7.70;99.90;;;;;;5035421;28;20060;-96
2022/01/18 00:46:29;;;;;;;42.97;8.68;;;7.60;99.90;;;;;;5036365;28;20032;-96
2022/01/18 00:48:57;;;;;;;30.40;7.40;;;7.60;99.90;;;;;;5040483;28;20109;-95
2022/01/18 00:51:22;;;;;;;31.25;6.82;;;7.60;99.90;;;;;;5038215;28;20036;-96
2022/01/18 00:53:48;;;;;;;33.20;7.68;;;7.60;99.90;;;;;;5050935;28;20047;-96
2022/01/18 00:56:24;;;;;;;30.90;7.68;;;7.60;99.90;;;;;;5038071;28;20044;-96
2022/01/18 00:58:53;;;;;;;39.58;7.95;;;7.50;99.90;;;;;;5038535;28;20044;-95
2022/01/18 01:01:22;;;;;;;40.70;7.57;;;7.50;99.90;;;;;;5044162;28;20047;-96
2022/01/18 01:03:49;;;;;;;36.05;8.48;;;7.50;99.90;;;;;;5057279;28;20059;-96
2022/01/18 01:06:15;;;;;;;37.00;7.78;;;7.50;99.90;;;;;;5037173;28;20049;-94
2022/01/18 01:08:41;;;;;;;43.28;8.10;;;7.50;99.90;;;;;;5053873;28;20036;-96
2022/01/18 01:11:09;;;;;;;37.10;8.52;;;7.50;99.90;;;;;;5039604;28;20044;-94
2022/01/18 01:14:01;;;;;;;40.60;7.40;;;7.40;99.90;;;;;;5039806;28;20033;-96
2022/01/18 01:16:47;;;;;;;36.47;7.72;;;7.40;99.90;;;;;;5039106;28;20040;-95
2022/01/18 01:43:29;;;;;;;33.80;7.63;;;7.10;99.90;;;;;;5057214;28;20056;-95
2022/01/18 01:45:56;;;;;;;38.58;8.70;;;7.00;99.90;;;;;;5041733;28;20044;-95
2022/01/18 01:48:23;;;;;;;38.83;8.90;;;7.00;99.90;;;;;;5040657;28;20443;-96
2022/01/18 01:50:53;;;;;;;35.53;8.60;;;7.00;99.90;;;;;;5038321;28;20496;-96
2022/01/18 01:53:24;;;;;;;33.87;8.63;;;7.00;99.90;;;;;;5056585;28;20037;-96
2022/01/18 01:55:51;;;;;;;41.08;7.93;;;7.00;99.90;;;;;;5032840;28;20037;-96
2022/01/18 01:58:25;;;;;;;30.35;8.35;;;6.90;99.90;;;;;;5035936;28;20040;-96
2022/01/18 02:00:57;;;;;;;39.20;9.52;;;7.00;99.90;;;;;;5057873;28;20150;-96
2022/01/18 02:03:23;;;;;;;44.10;9.23;;;6.90;99.90;;;;;;5042649;28;20404;-95
2022/01/18 02:05:49;;;;;;;37.92;9.52;;;6.90;99.90;;;;;;5038794;28;20107;-96
2022/01/18 02:08:15;;;;;;;42.35;9.43;;;6.90;99.90;;;;;;5056355;28;20041;-96
2022/01/18 02:10:42;;;;;;;32.78;9.23;;;6.90;99.90;;;;;;5037659;28;20402;-96
2022/01/18 02:13:15;;;;;;;39.38;9.30;;;6.90;99.90;;;;;;5036907;28;20090;-95
2022/01/18 02:16:08;;;;;;;38.03;8.70;;;6.90;99.90;;;;;;5039937;28;20117;-94
2022/01/18 02:23:58;;;;;;;44.45;10.48;;;6.90;99.90;;;;;;5054117;28;20041;-95
2022/01/18 02:26:24;;;;;;;38.55;9.50;;;6.80;99.90;;;;;;5037144;28;20068;-96
2022/01/18 02:29:03;;;;;;;39.65;10.80;;;6.80;99.90;;;;;;5039290;28;20040;-96
2022/01/18 02:31:29;;;;;;;40.78;10.20;;;6.80;99.90;;;;;;5037509;28;20044;-96
2022/01/18 02:34:00;;;;;;;43.15;9.43;;;6.80;99.90;;;;;;5041636;28;20040;-96
2022/01/18 02:36:26;;;;;;;44.17;9.52;;;6.80;99.90;;;;;;5059755;28;20016;-95
2022/01/18 02:38:51;;;;;;;40.83;9.80;;;6.80;99.90;;;;;;5054811;28;20364;-96
2022/01/18 02:41:25;;;;;;;40.40;10.40;;;6.80;99.90;;;;;;5046244;28;20041;-96
2022/01/18 02:44:08;;;;;;;40.00;10.13;;;6.80;99.90;;;;;;5054081;28;20123;-96
2022/01/18 02:46:34;;;;;;;34.50;8.65;;;6.80;99.90;;;;;;5055305;28;20052;-95
2022/01/18 02:49:02;;;;;;;38.47;9.52;;;6.80;99.90;;;;;;5062266;28;20108;-95
2022/01/18 02:51:28;;;;;;;37.85;9.48;;;6.80;99.90;;;;;;5040467;28;20040;-96
2022/01/18 02:54:09;;;;;;;33.67;9.30;;;6.80;99.90;;;;;;5036346;28;20029;-96
2022/01/18 02:56:41;;;;;;;40.07;9.90;;;6.80;99.90;;;;;;5036287;28;20063;-95
2022/01/18 02:59:18;;;;;;;35.75;8.63;;;6.80;99.90;;;;;;5056183;28;20403;-95
2022/01/18 03:04:29;;;;;;;33.35;9.18;;;6.80;99.90;;;;;;5044314;28;20049;-96
2022/01/18 03:06:55;;;;;;;38.30;10.48;;;6.80;99.90;;;;;;5034204;28;20040;-96
2022/01/18 03:09:21;;;;;;;40.53;9.18;;;6.90;99.90;;;;;;5028895;28;20036;-96
2022/01/18 03:12:14;;;;;;;42.55;10.55;;;6.90;99.90;;;;;;5036008;28;20099;-95
2022/01/18 03:14:40;;;;;;;44.40;10.98;;;6.90;99.90;;;;;;5053666;28;20044;-94
2022/01/18 03:17:06;;;;;;;40.45;10.15;;;6.90;99.90;;;;;;5037583;28;20523;-96
2022/01/18 03:19:32;;;;;;;37.15;9.20;;;6.90;99.90;;;;;;5076143;28;20063;-96
2022/01/18 03:21:58;;;;;;;31.90;7.95;;;6.80;99.90;;;;;;5065898;28;20020;-95
2022/01/18 03:29:39;;;;;;;23.50;7.50;;;6.80;99.90;;;;;;5055635;28;20041;-96
2022/01/18 03:32:05;;;;;;;26.58;8.20;;;6.80;99.90;;;;;;5033993;28;20183;-96
2022/01/18 03:34:30;;;;;;;25.70;6.60;;;6.80;99.90;;;;;;5037318;28;20128;-96
2022/01/18 03:36:56;;;;;;;32.00;8.35;;;6.80;99.90;;;;;;5038215;28;20124;-96
2022/01/18 03:39:22;;;;;;;29.75;8.02;;;6.80;99.90;;;;;;5057474;28;20029;-96
2022/01/18 03:41:54;;;;;;;25.70;6.68;;;6.80;99.90;;;;;;5056082;28;20122;-95
2022/01/18 03:44:37;;;;;;;25.85;6.18;;;6.90;99.90;;;;;;5056732;28;20048;-96
2022/01/18 03:47:03;;;;;;;24.92;6.60;;;6.90;99.90;;;;;;5038731;28;20477;-95
2022/01/18 03:49:30;;;;;;;24.70;7.20;;;6.90;99.90;;;;;;5035266;28;20056;-95
2022/01/18 03:51:55;;;;;;;21.30;6.40;;;6.90;99.90;;;;;;5036298;28;20044;-95
2022/01/18 03:54:23;;;;;;;26.10;6.40;;;6.90;99.90;;;;;;5036884;28;20087;-95
2022/01/18 03:56:55;;;;;;;25.70;6.05;;;6.90;99.90;;;;;;5034566;28;20128;-96
2022/01/18 03:59:20;;;;;;;35.33;7.72;;;6.90;99.90;;;;;;5048496;28;20044;-96
2022/01/18 04:01:46;;;;;;;23.58;6.60;;;6.90;99.90;;;;;;5058483;28;20052;-94
2022/01/18 04:04:12;;;;;;;28.13;6.78;;;7.00;99.90;;;;;;5043503;28;20033;-96
2022/01/18 04:06:38;;;;;;;24.80;5.90;;;7.00;99.90;;;;;;5038354;28;20041;-96
2022/01/18 04:09:04;;;;;;;24.05;5.30;;;7.00;99.90;;;;;;5059022;28;20047;-96
2022/01/18 04:11:29;;;;;;;21.52;5.45;;;7.00;99.90;;;;;;5057349;28;20044;-96
2022/01/18 04:14:20;;;;;;;23.58;6.53;;;7.00;99.90;;;;;;5073762;28;20167;-96
2022/01/18 04:27:50;;;;;;;21.10;5.50;;;7.00;99.90;;;;;;5042503;28;20400;-96
2022/01/18 04:30:16;;;;;;;22.70;5.82;;;7.00;99.90;;;;;;5037546;28;20118;-95
2022/01/18 04:32:41;;;;;;;21.15;6.35;;;7.00;99.90;;;;;;5028948;28;20483;-95
2022/01/18 04:35:07;;;;;;;22.55;5.70;;;7.00;99.90;;;;;;5040387;28;20052;-96
2022/01/18 04:37:33;;;;;;;22.70;5.75;;;7.00;99.90;;;;;;5056838;28;20036;-95
2022/01/18 04:39:59;;;;;;;24.48;6.72;;;7.00;99.90;;;;;;5055661;28;20041;-96
2022/01/18 04:42:58;;;;;;;18.35;6.10;;;7.10;99.90;;;;;;5056603;28;20048;-95
2022/01/18 04:48:26;;;;;;;21.25;5.18;;;7.00;99.90;;;;;;5061760;28;20048;-95
2022/01/18 04:51:07;;;;;;;19.77;4.53;;;7.00;99.90;;;;;;5043037;28;20047;-96
2022/01/18 04:53:34;;;;;;;20.00;5.07;;;6.90;99.90;;;;;;5039631;28;20044;-96
2022/01/18 04:56:05;;;;;;;21.75;6.03;;;6.90;99.90;;;;;;5040459;28;20155;-96
2022/01/18 04:58:45;;;;;;;20.67;5.32;;;6.90;99.90;;;;;;5042330;28;20040;-95
2022/01/18 05:01:13;;;;;;;21.50;5.22;;;6.90;99.90;;;;;;5039479;28;20127;-95
2022/01/18 05:03:38;;;;;;;20.10;4.97;;;6.90;99.90;;;;;;5039253;28;20380;-96
2022/01/18 05:06:10;;;;;;;15.68;4.35;;;6.90;99.90;;;;;;5026892;28;20036;-95
2022/01/18 05:08:37;;;;;;;18.13;4.88;;;6.90;99.90;;;;;;5038162;28;20044;-96
2022/01/18 05:11:04;;;;;;;20.20;4.97;;;6.90;99.90;;;;;;5039734;28;20079;-95
2022/01/18 05:21:25;;;;;;;16.77;4.60;;;6.90;99.90;;;;;;5058318;28;20052;-96
2022/01/18 05:23:50;;;;;;;17.13;4.00;;;6.90;99.90;;;;;;5042537;28;20054;-96
2022/01/18 05:26:16;;;;;;;16.65;4.53;;;6.90;99.90;;;;;;5045387;28;20097;-94
2022/01/18 05:28:51;;;;;;;17.42;4.18;;;6.90;99.90;;;;;;5065767;28;20044;-96
2022/01/18 05:31:17;;;;;;;17.20;5.13;;;6.80;99.90;;;;;;5054177;28;20136;-96
2022/01/18 05:33:43;;;;;;;16.90;4.32;;;6.90;99.90;;;;;;5047141;28;20025;-94
2022/01/18 05:36:10;;;;;;;15.23;4.10;;;6.80;99.90;;;;;;5061985;28;20028;-96
2022/01/18 05:38:37;;;;;;;17.17;4.38;;;6.80;99.90;;;;;;5071496;28;20040;-96
2022/01/18 05:41:04;;;;;;;22.50;4.82;;;6.80;99.90;;;;;;5080934;28;20094;-96
2022/01/18 05:43:30;;;;;;;17.42;4.53;;;6.80;99.90;;;;;;5041471;28;20068;-95
2022/01/18 05:45:56;;;;;;;19.60;4.53;;;6.80;99.90;;;;;;5058225;28;20044;-96
2022/01/18 05:48:23;;;;;;;19.60;4.45;;;6.80;99.90;;;;;;5040620;28;20040;-96
2022/01/18 05:50:48;;;;;;;19.42;4.70;;;6.80;99.90;;;;;;5042116;28;20051;-95
2022/01/18 05:53:14;;;;;;;16.98;4.60;;;6.90;99.90;;;;;;5056773;28;20139;-94
2022/01/18 05:55:40;;;;;;;18.88;4.57;;;6.80;99.90;;;;;;5056619;28;20067;-94
2022/01/18 05:58:11;;;;;;;20.58;5.20;;;6.70;99.90;;;;;;5038308;28;20401;-93
2022/01/18 06:00:40;;;;;;;16.35;4.15;;;6.80;99.90;;;;;;5022026;28;20037;-94
2022/01/18 06:03:13;;;;;;;17.10;4.78;;;6.80;99.90;;;;;;5035105;28;20045;-94
2022/01/18 06:08:24;;;;;;;18.20;4.85;;;6.80;99.90;;;;;;5070488;28;20072;-93
2022/01/18 06:10:50;;;;;;;16.80;4.57;;;6.80;99.90;;;;;;5053960;28;20049;-93
2022/01/18 06:13:21;;;;;;;21.88;5.55;;;6.80;99.90;;;;;;5044677;28;20052;-95
2022/01/18 06:15:47;;;;;;;18.92;5.22;;;6.80;99.90;;;;;;5053736;28;20087;-95
2022/01/18 06:18:14;;;;;;;17.33;5.13;;;6.80;99.90;;;;;;5036775;28;20076;-96
2022/01/18 06:20:40;;;;;;;19.92;5.88;;;6.80;99.90;;;;;;5036120;28;20045;-95
2022/01/18 06:23:06;;;;;;;17.45;5.28;;;6.80;99.90;;;;;;5060221;28;20049;-96
2022/01/18 06:46:46;;;;;;;15.65;5.20;;;6.70;99.90;;;;;;5412684;22;20116;-95
2022/01/18 06:49:12;;;;;;;14.60;4.68;;;6.70;99.90;;;;;;5021209;28;20076;-94
2022/01/18 06:51:37;;;;;;;15.68;5.32;;;6.70;99.90;;;;;;5021019;28;20041;-94
2022/01/18 06:54:03;;;;;;;16.75;7.68;;;6.80;99.90;;;;;;5024468;28;21510;-93
2022/01/18 06:56:29;;;;;;;18.40;9.25;;;6.80;99.90;;;;;;5025424;28;20493;-94
2022/01/18 06:59:07;;;;;;;19.70;9.13;;;6.80;99.90;;;;;;5020982;28;20037;-95
2022/01/18 07:01:33;;;;;;;15.27;5.28;;;6.70;99.90;;;;;;5039270;28;20052;-95
2022/01/18 07:03:59;;;;;;;20.15;5.60;;;6.70;99.90;;;;;;5061431;28;20040;-95
2022/01/18 07:06:25;;;;;;;19.73;5.10;;;6.70;99.90;;;;;;5046896;28;20032;-93
2022/01/18 07:08:50;;;;;;;13.98;4.40;;;6.70;99.90;;;;;;5046211;28;20056;-94
2022/01/18 07:11:17;;;;;;;18.55;5.07;;;6.70;99.90;;;;;;5035832;28;20037;-94
2022/01/18 07:13:51;;;;;;;16.10;4.97;;;6.70;99.90;;;;;;5049215;28;20047;-94
2022/01/18 07:16:17;;;;;;;19.08;5.18;;;6.70;99.90;;;;;;5034171;28;20045;-91
2022/01/18 07:18:43;;;;;;;14.60;5.82;;;6.70;99.90;;;;;;5047390;28;20044;-94
2022/01/18 07:21:09;;;;;;;14.98;5.38;;;6.70;99.90;;;;;;5044251;28;20041;-92
2022/01/18 07:23:36;;;;;;;17.05;5.47;;;6.70;99.90;;;;;;5045205;28;20105;-91
2022/01/18 07:26:02;;;;;;;14.95;5.32;;;6.60;99.90;;;;;;5063602;28;20123;-95
2022/01/18 07:28:39;;;;;;;17.20;5.45;;;6.60;99.90;;;;;;5050744;28;20052;-93
2022/01/18 07:31:05;;;;;;;17.00;5.90;;;6.60;99.90;;;;;;5036440;28;20112;-93
2022/01/18 07:33:31;;;;;;;15.77;5.10;;;6.60;99.90;;;;;;5032914;28;20041;-93
2022/01/18 07:35:57;;;;;;;19.25;5.90;;;6.60;99.90;;;;;;5046209;28;20037;-91
2022/01/18 07:38:22;;;;;;;19.33;6.40;;;6.60;99.90;;;;;;5061648;28;20028;-91
2022/01/18 07:40:49;;;;;;;15.50;6.15;;;6.60;99.90;;;;;;5030337;28;20033;-92
2022/01/18 07:43:30;;;;;;;21.90;5.55;;;6.60;99.90;;;;;;5057267;28;20111;-91
2022/01/18 07:45:56;;;;;;;17.75;6.07;;;6.50;99.90;;;;;;5030629;28;20061;-91
2022/01/18 07:48:23;;;;;;;19.83;6.45;;;6.60;99.90;;;;;;5038729;28;20133;-91
2022/01/18 07:50:53;;;;;;;20.63;6.38;;;6.50;99.90;;;;;;5040167;28;20049;-92
2022/01/18 07:53:19;;;;;;;18.17;6.57;;;6.50;99.90;;;;;;5038903;28;20037;-92
2022/01/18 07:55:46;;;;;;;18.30;5.55;;;6.50;99.90;;;;;;5023320;28;20046;-92
2022/01/18 07:58:13;;;;;;;16.38;5.80;;;6.50;99.90;;;;;;5036309;28;20154;-92
2022/01/18 08:00:39;;;;;;;16.58;5.95;;;6.50;99.90;;;;;;5015961;28;20084;-92
2022/01/18 08:03:05;;;;;;;20.70;6.47;;;6.60;99.90;;;;;;5017897;28;20076;-92
2022/01/18 08:05:30;;;;;;;21.77;6.47;;;6.50;99.90;;;;;;5028488;28;20114;-93
2022/01/18 08:07:56;;;;;;;19.17;7.28;;;6.50;99.90;;;;;;5034419;28;20052;-93
2022/01/18 08:10:29;;;;;;;18.88;7.40;;;6.50;99.90;;;;;;5048313;28;20045;-92
2022/01/18 08:13:03;;;;;;;24.00;7.88;;;6.60;99.90;;;;;;5021726;28;20045;-92
2022/01/18 08:15:38;;;;;;;18.88;7.22;;;6.50;99.90;;;;;;5017919;28;20049;-92
2022/01/18 08:18:08;;;;;;;22.13;7.93;;;6.50;99.90;;;;;;5019661;28;20088;-90
2022/01/18 08:20:33;;;;;;;20.73;9.10;;;6.50;99.90;;;;;;5031975;28;20400;-91
2022/01/18 08:22:59;;;;;;;19.00;7.85;;;6.50;99.90;;;;;;5036835;28;20121;-92
2022/01/18 08:25:25;;;;;;;19.58;7.80;;;6.50;99.90;;;;;;5039647;28;20049;-93
2022/01/18 08:27:51;;;;;;;19.30;8.57;;;6.50;99.90;;;;;;5087311;28;20052;-94
2022/01/18 08:30:24;;;;;;;19.48;7.45;;;6.60;99.90;;;;;;5034124;28;20050;-92
2022/01/18 08:32:50;;;;;;;22.50;9.38;;;6.60;99.90;;;;;;5016916;28;20037;-93
2022/01/18 08:35:17;;;;;;;20.83;8.57;;;6.60;99.90;;;;;;5037992;28;20064;-93
2022/01/18 08:37:43;;;;;;;19.52;8.10;;;6.60;99.90;;;;;;5035144;28;20033;-93
2022/01/18 08:40:09;;;;;;;17.63;8.60;;;6.60;99.90;;;;;;5037693;28;20072;-95
2022/01/18 08:42:35;;;;;;;20.75;7.43;;;6.70;99.90;;;;;;5017197;28;20049;-93
2022/01/18 08:45:02;;;;;;;22.58;7.97;;;6.70;99.90;;;;;;5025618;28;20069;-94
2022/01/18 08:47:27;;;;;;;19.73;8.23;;;6.70;99.90;;;;;;5023946;28;20056;-94
2022/01/18 08:49:53;;;;;;;16.77;7.07;;;6.60;99.90;;;;;;5021196;28;20045;-95
2022/01/18 08:52:20;;;;;;;19.98;7.35;;;6.70;99.90;;;;;;5021579;28;20091;-93
2022/01/18 08:59:58;;;;;;;19.20;7.50;;;6.80;99.90;;;;;;5062673;28;20064;-96
2022/01/18 09:02:23;;;;;;;20.08;8.07;;;6.80;99.90;;;;;;5052012;28;20056;-96
2022/01/18 09:04:50;;;;;;;19.85;8.25;;;6.90;99.90;;;;;;5032729;28;20051;-96
2022/01/18 09:07:18;;;;;;;18.77;7.90;;;6.90;99.90;;;;;;5040429;28;20448;-96
2022/01/18 09:09:48;;;;;;;20.42;8.57;;;6.80;99.90;;;;;;5035869;28;20040;-96
2022/01/18 09:12:17;;;;;;;18.75;8.55;;;6.90;99.90;;;;;;5022386;28;20045;-96
2022/01/18 09:14:43;;;;;;;21.33;8.35;;;6.80;99.90;;;;;;5038291;28;20512;-95
2022/01/18 09:17:08;;;;;;;23.05;8.43;;;6.90;99.90;;;;;;5035736;28;20131;-94
2022/01/18 09:19:34;;;;;;;17.75;8.18;;;6.90;99.90;;;;;;5019715;28;20489;-93
2022/01/18 09:22:03;;;;;;;19.30;8.45;;;7.00;99.90;;;;;;5019391;28;20040;-94
2022/01/18 09:24:29;;;;;;;21.92;8.85;;;6.90;99.90;;;;;;5035346;28;20051;-94
2022/01/18 09:26:55;;;;;;;19.13;8.82;;;7.00;99.90;;;;;;5018537;28;20041;-95
2022/01/18 09:29:21;;;;;;;22.10;8.43;;;7.00;99.90;;;;;;5019299;28;20444;-96
2022/01/18 09:31:47;;;;;;;20.83;8.23;;;7.00;99.90;;;;;;5018848;28;20045;-93
2022/01/18 09:34:13;;;;;;;18.80;8.30;;;6.90;99.90;;;;;;5032744;28;20037;-95
2022/01/18 09:36:38;;;;;;;18.70;8.43;;;6.90;99.90;;;;;;5017405;28;20051;-94
2022/01/18 09:39:04;;;;;;;18.48;8.77;;;6.90;99.90;;;;;;5035949;28;20044;-95
2022/01/18 09:41:37;;;;;;;19.30;7.38;;;6.90;99.90;;;;;;5029809;28;20028;-95
2022/01/18 09:44:03;;;;;;;20.60;9.20;;;7.00;99.90;;;;;;5020161;28;20067;-95
2022/01/18 09:46:28;;;;;;;21.80;9.60;;;7.00;99.90;;;;;;5017767;28;20036;-93
2022/01/18 09:48:56;;;;;;;20.38;8.70;;;7.00;99.90;;;;;;5017789;28;20128;-93
2022/01/18 09:51:23;;;;;;;19.88;8.05;;;7.10;99.90;;;;;;5018270;28;20095;-95
2022/01/18 09:53:49;;;;;;;21.05;8.95;;;7.00;99.90;;;;;;5018063;28;20049;-95
2022/01/18 09:56:15;;;;;;;21.02;8.77;;;7.10;99.90;;;;;;5020465;28;20045;-95
2022/01/18 09:58:41;;;;;;;21.17;9.90;;;7.10;99.90;;;;;;5018570;28;20124;-94
2022/01/18 10:01:07;;;;;;;19.85;8.48;;;7.10;99.90;;;;;;5018716;28;20040;-96
2022/01/18 10:03:38;;;;;;;21.40;8.73;;;7.10;99.90;;;;;;5017795;28;20033;-96
2022/01/18 10:06:05;;;;;;;20.45;9.07;;;7.20;99.90;;;;;;5025364;28;20095;-96
2022/01/18 10:08:31;;;;;;;21.52;8.10;;;7.30;99.90;;;;;;5039198;28;20033;-96
2022/01/18 10:11:06;;;;;;;18.20;8.68;;;7.30;99.90;;;;;;5039363;28;20051;-96
2022/01/18 10:13:36;;;;;;;18.85;8.68;;;7.30;99.90;;;;;;5119286;22;20020;-96
2022/01/18 10:24:30;;;;;;;19.00;9.20;;;7.50;99.90;;;;;;5335415;22;20498;-96
2022/01/18 10:29:43;;;;;;;23.33;9.07;;;7.50;99.90;;;;;;5528661;22;20064;-95
2022/01/18 10:37:25;;;;;;;23.00;11.88;;;7.80;99.90;;;;;;5049996;28;20070;-95
2022/01/18 10:42:52;;;;;;;24.08;11.50;;;7.70;99.90;;;;;;5182263;22;20033;-96
2022/01/18 10:56:41;;;;;;;16.83;7.47;;;7.70;99.90;;;;;;5519198;22;21074;-94
2022/01/18 11:04:16;;;;;;;17.77;7.40;;;7.70;99.90;;;;;;5402790;22;20037;-95
2022/01/18 11:07:00;;;;;;;15.90;7.10;;;7.70;99.90;;;;;;5044064;28;20029;-96
2022/01/18 11:09:28;;;;;;;17.58;7.53;;;7.80;99.90;;;;;;5031897;28;20033;-96
2022/01/18 11:14:51;;;;;;;15.32;6.57;;;7.90;99.90;;;;;;5079985;22;20047;-94
2022/01/18 11:17:24;;;;;;;15.65;7.03;;;7.90;99.90;;;;;;5037529;28;20053;-96
2022/01/18 11:19:54;;;;;;;17.63;7.00;;;7.90;99.90;;;;;;5192042;23;20053;-95
2022/01/18 11:22:25;;;;;;;17.05;5.28;;;7.90;99.90;;;;;;4997889;28;20072;-96
2022/01/18 11:24:51;;;;;;;15.57;5.32;;;8.00;99.90;;;;;;5003701;28;20316;-96
2022/01/18 11:27:19;;;;;;;12.05;4.07;;;7.90;99.90;;;;;;4990138;28;20105;-94
2022/01/18 11:29:49;;;;;;;12.98;3.45;;;8.00;99.90;;;;;;5003861;28;20378;-94
2022/01/18 11:32:16;;;;;;;12.93;4.20;;;7.90;99.90;;;;;;5010536;28;20014;-91
2022/01/18 11:35:10;;;;;;;13.95;4.78;;;7.90;99.90;;;;;;5014775;28;20052;-93
2022/01/18 11:38:13;;;;;;;13.93;4.35;;;7.90;99.90;;;;;;5027225;28;20030;-94
2022/01/18 11:40:46;;;;;;;12.38;4.05;;;7.90;99.90;;;;;;5015288;28;20041;-96
2022/01/18 11:43:12;;;;;;;12.68;4.28;;;7.90;99.90;;;;;;5017175;28;20110;-96
2022/01/18 11:45:50;;;;;;;11.65;4.35;;;7.90;99.90;;;;;;5000713;28;20046;-96
2022/01/18 11:48:20;;;;;;;12.77;4.18;;;7.90;99.90;;;;;;5008513;28;20043;-96
2022/01/18 11:51:06;;;;;;;12.38;3.80;;;7.90;99.90;;;;;;5030108;28;20041;-95
2022/01/18 11:56:11;;;;;;;14.27;3.65;;;7.80;99.90;;;;;;5007764;28;20510;-95
2022/01/18 11:58:37;;;;;;;10.85;3.90;;;7.80;99.90;;;;;;5008541;28;20033;-96
2022/01/18 12:01:17;;;;;;;12.82;3.70;;;7.80;99.90;;;;;;5029033;28;20069;-96
2022/01/18 12:03:47;;;;;;;12.23;3.95;;;7.80;99.90;;;;;;5007036;28;20056;-96
2022/01/18 12:06:13;;;;;;;12.65;4.20;;;7.90;99.90;;;;;;5206922;22;20111;-96
2022/01/18 12:08:44;;;;;;;12.73;4.10;;;7.90;99.90;;;;;;5043747;28;20049;-95
2022/01/18 12:11:19;;;;;;;;;;;7.90;99.90;;;;;;5036733;28;20049;-96
2022/01/18 12:13:47;;;;;;;12.80;4.00;;;7.80;99.90;;;;;;5022248;28;19935;-91
2022/01/18 12:16:29;;;;;;;9.38;3.25;;;7.80;99.90;;;;;;5015571;28;20049;-93
2022/01/18 12:18:58;;;;;;;12.55;4.00;;;7.90;99.90;;;;;;5019746;28;20126;-94
2022/01/18 12:21:28;;;;;;;12.73;3.90;;;7.90;99.90;;;;;;5003219;28;20052;-96
2022/01/18 12:23:56;;;;;;;10.93;3.65;;;7.90;99.90;;;;;;5020092;28;20065;-95
2022/01/18 12:35:01;;;;;;;11.07;3.53;;;7.90;99.90;;;;;;5069593;28;20079;-95
2022/01/18 12:37:21;;;;;;;11.70;3.83;;;7.80;99.90;;;;;;5067272;28;20041;-96
2022/01/18 12:39:59;;;;;;;12.00;3.30;;;7.80;99.90;;;;;;5051196;28;20053;-95
2022/01/18 12:45:16;;;;;;;10.00;2.80;;;7.70;99.90;;;;;;5073381;28;20132;-96
2022/01/18 12:48:02;;;;;;;11.27;3.08;;;7.70;99.90;;;;;;5050666;28;20029;-96
2022/01/18 12:50:43;;;;;;;11.48;3.33;;;7.60;99.90;;;;;;5058827;28;20037;-96
2022/01/18 13:52:14;;;;;;;13.30;5.95;;;7.50;99.90;;;;;;5033137;28;20049;-96
2022/01/18 13:54:47;;;;;;;12.52;5.53;;;7.50;99.90;;;;;;5001027;28;20041;-96
2022/01/18 13:57:13;;;;;;;13.68;5.85;;;7.50;99.90;;;;;;5023956;28;20509;-95
2022/01/18 13:59:39;;;;;;;18.90;6.70;;;7.50;99.90;;;;;;5008243;28;20065;-93
2022/01/18 14:02:13;;;;;;;17.13;6.35;;;7.50;99.90;;;;;;4994114;28;20562;-94
2022/01/18 14:04:40;;;;;;;17.27;6.90;;;7.50;99.90;;;;;;4997988;28;20414;-93
2022/01/18 14:07:05;;;;;;;16.67;7.00;;;7.40;99.90;;;;;;4996572;28;20045;-91
2022/01/18 14:09:31;;;;;;;12.48;6.15;;;7.50;99.90;;;;;;5029129;28;20603;-93
2022/01/18 14:11:57;;;;;;;16.02;6.80;;;7.50;99.90;;;;;;5014210;28;20095;-93
2022/01/18 14:14:25;;;;;;;16.45;7.10;;;7.50;99.90;;;;;;5014931;28;20393;-94
2022/01/18 14:16:57;;;;;;;18.70;6.93;;;7.50;99.90;;;;;;4998020;28;20049;-94
2022/01/18 14:19:28;;;;;;;15.48;7.18;;;7.40;99.90;;;;;;4998157;28;20226;-94
2022/01/18 14:21:54;;;;;;;;;;;7.40;99.90;;;;;;5015089;28;20049;-94
2022/01/18 14:24:25;;;;;;;15.40;6.15;;;7.30;99.90;;;;;;5014145;28;19928;-95
2022/01/18 14:26:54;;;;;;;14.70;6.18;;;7.40;99.90;;;;;;4991174;28;20045;-95
2022/01/18 14:29:30;;;;;;;15.55;6.55;;;7.40;99.90;;;;;;4987841;28;20093;-93
2022/01/18 14:32:02;;;;;;;16.10;7.28;;;7.40;99.90;;;;;;5004927;28;20068;-95
2022/01/18 14:34:34;;;;;;;18.58;6.32;;;7.40;99.90;;;;;;5010441;28;20042;-96
2022/01/18 14:37:00;;;;;;;17.60;7.07;;;7.30;99.90;;;;;;5014587;28;20030;-94
2022/01/18 14:39:26;;;;;;;15.93;6.50;;;7.20;99.90;;;;;;5038176;28;20037;-95
2022/01/18 14:41:58;;;;;;;17.08;6.95;;;7.30;99.90;;;;;;5006455;28;20069;-95
2022/01/18 14:44:47;;;;;;;18.40;6.65;;;7.30;99.90;;;;;;5003828;28;20041;-96
2022/01/18 14:47:25;;;;;;;16.35;6.40;;;7.30;99.90;;;;;;5002225;28;20054;-95
2022/01/18 14:49:56;;;;;;;16.23;6.78;;;7.20;99.90;;;;;;5000934;28;20542;-92
2022/01/18 14:52:23;;;;;;;18.67;6.78;;;7.20;99.90;;;;;;5029675;28;20109;-93
2022/01/18 14:54:49;;;;;;;17.80;7.03;;;7.20;99.90;;;;;;5012687;28;20037;-92
2022/01/18 14:57:14;;;;;;;17.33;7.40;;;7.10;99.90;;;;;;4989778;28;20083;-93
2022/01/18 14:59:40;;;;;;;18.70;7.15;;;7.10;99.90;;;;;;4995611;28;20482;-92
2022/01/18 15:02:07;;;;;;;19.90;7.88;;;7.10;99.90;;;;;;4994463;28;20485;-93
2022/01/18 15:04:32;;;;;;;17.13;8.10;;;7.10;99.90;;;;;;4986274;28;20034;-94
2022/01/18 15:06:58;;;;;;;20.65;9.23;;;7.10;99.90;;;;;;4997759;28;20401;-95
2022/01/18 15:09:28;;;;;;;21.08;8.50;;;7.00;99.90;;;;;;4998170;28;20116;-94
2022/01/18 15:11:56;;;;;;;20.52;8.38;;;7.00;99.90;;;;;;4994968;28;20060;-93
2022/01/18 15:14:21;;;;;;;20.05;9.23;;;7.00;99.90;;;;;;5018359;28;20065;-95
2022/01/18 15:16:47;;;;;;;21.67;9.73;;;7.00;99.90;;;;;;5015369;28;20106;-93
2022/01/18 15:19:13;;;;;;;21.33;9.57;;;7.00;99.90;;;;;;5011376;28;20045;-93
2022/01/18 15:21:38;;;;;;;23.67;10.82;;;7.00;99.90;;;;;;4993225;28;20095;-94
2022/01/18 15:24:04;;;;;;;24.80;12.27;;;7.00;99.90;;;;;;4992080;28;20117;-91
2022/01/18 15:26:30;;;;;;;24.73;12.18;;;6.90;99.90;;;;;;4995297;28;20101;-94
2022/01/18 15:28:56;;;;;;;26.65;13.98;;;6.90;99.90;;;;;;5014325;28;20068;-94
2022/01/18 15:31:21;;;;;;;34.08;21.45;;;6.90;99.90;;;;;;5014540;28;20049;-92
2022/01/18 15:33:47;;;;;;;36.45;17.80;;;6.80;99.90;;;;;;5001666;28;20037;-93
2022/01/18 15:36:13;;;;;;;31.70;17.75;;;6.80;99.90;;;;;;4996382;28;20041;-95
2022/01/18 15:38:38;;;;;;;33.97;19.27;;;6.70;99.90;;;;;;4994998;28;20034;-95
2022/01/18 15:41:04;;;;;;;33.13;14.55;;;6.80;99.90;;;;;;4995661;28;20144;-94
2022/01/18 15:43:30;;;;;;;34.28;18.88;;;6.70;99.90;;;;;;5019009;28;20103;-94
2022/01/18 15:45:55;;;;;;;35.97;19.63;;;6.70;99.90;;;;;;5037699;28;20044;-95
2022/01/18 15:48:21;;;;;;;44.78;23.70;;;6.60;99.90;;;;;;5015435;28;20041;-93
2022/01/18 15:50:47;;;;;;;51.65;28.52;;;6.70;99.90;;;;;;4997503;28;20056;-94
2022/01/18 15:53:13;;;;;;;49.67;27.23;;;6.60;99.90;;;;;;5014844;28;20516;-92
2022/01/18 15:55:39;;;;;;;51.92;28.92;;;6.60;99.90;;;;;;5015402;28;20128;-94
2022/01/18 15:58:04;;;;;;;55.42;28.95;;;6.60;99.90;;;;;;5018789;28;20125;-95
2022/01/18 16:00:30;;;;;;;52.58;26.38;;;6.50;99.90;;;;;;4991498;28;20044;-94
2022/01/18 16:02:56;;;;;;;54.83;27.55;;;6.50;99.90;;;;;;4999111;28;20125;-95
2022/01/18 16:05:22;;;;;;;52.58;26.15;;;6.40;99.90;;;;;;4999356;28;20049;-95
2022/01/18 16:07:47;;;;;;;52.08;29.27;;;6.40;99.90;;;;;;5017726;28;20079;-95
2022/01/18 16:10:13;;;;;;;53.28;26.35;;;6.40;99.90;;;;;;4991216;28;20049;-95
2022/01/18 16:12:39;;;;;;;56.97;28.80;;;6.30;99.90;;;;;;5018863;28;20045;-94
2022/01/18 16:15:05;;;;;;;58.63;27.02;;;6.30;99.90;;;;;;5002838;28;20409;-96
2022/01/18 16:17:31;;;;;;;59.35;29.27;;;6.20;99.90;;;;;;5037559;28;20046;-94
2022/01/18 16:19:57;;;;;;;57.00;28.60;;;6.20;99.90;;;;;;4999881;28;20065;-94
2022/01/18 16:22:22;;;;;;;65.53;30.15;;;6.20;99.90;;;;;;4999234;28;20052;-94